Etusivu
METAR-TAF:

METAR-TAF

Lentoasemat :

Dogonbadan, Iran

Leveyspiiri: 30-26N, Pituuspiiri: 050-46E, korkeus merenpinnasta: 738 m

Tämänhetkinen sää

Tämä raportti tehtiin 28 minuuttia sitten, kello 13.00 UTC
Tuuli 12 kn idästä/kaakosta
Lämpötila 15°C
Kosteus 77%
Ilmanpaine 1014 hPa
Näkyvyys 10 km tai enemmän
Muutamia pilviä 3000 ft:n korkeudessa, Cumulonimbus.
Hajanaisia pilviä 3500 ft:n korkeudessa
Pilvistä 9000 ft:n korkeudessa

METAR: OIAH 201300Z 12012KT 9999 FEW030CB SCT035 OVC090 15/11 Q1014

Aika: 16:58 (13:28 UTC)


TAF: puuttuu

Säähavainnot ja -ennusteet yli 4000 lentoasemalta (METAR- ja TAF-raportit).

Käytössä olevat sääasemat on merkitty karttaan keltaisilla ja punaisilla pisteillä.

Aseta hiiri pisteen päälle nähdäksesi sääaseman nimen.

Klikkaa sitten nähdäksesi säähavainnot ja -ennusteet.

Kartan vaihtaminen: klikkaa mustalla rastilla varustettuja vihreitä pisteitä, niin voit zoomata sisään; viivalla varustettua vihreää pistettä, niin voit zoomata ulos tai vihreitä nuolia, niin pääset viereisille kartoille.


METAR-TAF: